createdAt,value
2019-05-28T00:00:06.171Z,947.74
2019-05-28T00:01:06.179Z,947.75
2019-05-28T00:02:06.192Z,947.73
2019-05-28T00:03:06.198Z,947.73
2019-05-28T00:04:06.211Z,947.74
2019-05-28T00:05:06.229Z,947.71
2019-05-28T00:06:06.227Z,947.70
2019-05-28T00:07:06.242Z,947.70
2019-05-28T00:08:06.247Z,947.69
2019-05-28T00:09:06.257Z,947.69
2019-05-28T00:10:06.422Z,947.67
2019-05-28T00:11:06.281Z,947.65
2019-05-28T00:12:06.290Z,947.61
2019-05-28T00:13:06.295Z,947.63
2019-05-28T00:14:06.305Z,947.62
2019-05-28T00:15:06.319Z,947.59
2019-05-28T00:16:09.742Z,947.58
2019-05-28T00:17:06.336Z,947.58
2019-05-28T00:18:06.345Z,947.60
2019-05-28T00:19:06.371Z,947.61
2019-05-28T00:20:06.365Z,947.59
2019-05-28T00:21:06.377Z,947.55
2019-05-28T00:22:06.384Z,947.54
2019-05-28T00:23:06.404Z,947.52
2019-05-28T00:24:06.414Z,947.52
2019-05-28T00:25:06.421Z,947.50
2019-05-28T00:26:06.424Z,947.50
2019-05-28T00:27:06.445Z,947.49
2019-05-28T00:28:06.445Z,947.49
2019-05-28T00:29:06.457Z,947.46
2019-05-28T00:30:19.367Z,947.44
2019-05-28T00:31:06.476Z,947.43
2019-05-28T00:32:06.489Z,947.43
2019-05-28T00:33:06.497Z,947.45
2019-05-28T00:34:06.503Z,947.48
2019-05-28T00:35:06.520Z,947.46
2019-05-28T00:36:06.529Z,947.42
2019-05-28T00:37:06.535Z,947.48
2019-05-28T00:38:06.545Z,947.47
2019-05-28T00:39:06.555Z,947.46
2019-05-28T00:40:06.568Z,947.44
2019-05-28T00:41:06.572Z,947.42
2019-05-28T00:42:06.587Z,947.40
2019-05-28T00:43:06.595Z,947.41
2019-05-28T00:44:06.603Z,947.40
2019-05-28T00:45:06.615Z,947.37
2019-05-28T00:46:06.625Z,947.37
2019-05-28T00:47:06.633Z,947.38
2019-05-28T00:48:06.643Z,947.33
2019-05-28T00:49:06.653Z,947.33
2019-05-28T00:50:06.669Z,947.34
2019-05-28T00:51:06.672Z,947.30
2019-05-28T00:52:06.682Z,947.30
2019-05-28T00:53:06.693Z,947.28
2019-05-28T00:54:06.702Z,947.27
2019-05-28T00:55:06.712Z,947.26
2019-05-28T00:56:06.724Z,947.25
2019-05-28T00:57:06.734Z,947.26
2019-05-28T00:58:06.747Z,947.24
2019-05-28T00:59:06.751Z,947.23
2019-05-28T01:00:06.763Z,947.23
2019-05-28T01:01:06.776Z,947.24
2019-05-28T01:02:06.783Z,947.19
2019-05-28T01:03:06.789Z,947.20
2019-05-28T01:04:06.806Z,947.19
2019-05-28T01:05:06.823Z,947.18
2019-05-28T01:06:06.820Z,947.17
2019-05-28T01:07:06.831Z,947.16
2019-05-28T01:08:06.842Z,947.13
2019-05-28T01:09:06.853Z,947.16
2019-05-28T01:10:06.863Z,947.10
2019-05-28T01:11:06.868Z,947.11
2019-05-28T01:12:06.878Z,947.08
2019-05-28T01:13:06.895Z,947.11
2019-05-28T01:14:06.899Z,947.08
2019-05-28T01:15:06.911Z,947.07
2019-05-28T01:16:06.923Z,947.09
2019-05-28T01:17:06.928Z,947.06
2019-05-28T01:18:06.937Z,947.07
2019-05-28T01:19:06.961Z,947.08
2019-05-28T01:20:06.959Z,947.07
2019-05-28T01:21:06.966Z,947.06
2019-05-28T01:22:06.975Z,947.07
2019-05-28T01:23:06.989Z,947.04
2019-05-28T01:24:07.004Z,947.04
2019-05-28T01:25:07.009Z,947.06
2019-05-28T01:26:07.016Z,947.03
2019-05-28T01:27:07.031Z,947.03
2019-05-28T01:28:07.039Z,947.05
2019-05-28T01:29:07.046Z,947.04
2019-05-28T01:30:07.060Z,947.04
2019-05-28T01:31:07.067Z,947.06
2019-05-28T01:32:07.075Z,947.01
2019-05-28T01:33:07.091Z,947.05
2019-05-28T01:34:07.098Z,947.02
2019-05-28T01:35:07.108Z,947.04
2019-05-28T01:36:07.120Z,947.02
2019-05-28T01:37:07.127Z,947.02
2019-05-28T01:38:08.649Z,946.99
2019-05-28T01:39:07.143Z,947.01
2019-05-28T01:40:07.156Z,947.03
2019-05-28T01:41:07.166Z,946.98
2019-05-28T01:42:07.174Z,946.97
2019-05-28T01:43:07.184Z,946.99
2019-05-28T01:44:07.198Z,947.02
2019-05-28T01:45:07.237Z,947.00
2019-05-28T01:46:07.213Z,946.97
2019-05-28T01:47:07.224Z,947.02
2019-05-28T01:48:07.239Z,946.99
2019-05-28T01:49:07.245Z,947.01
2019-05-28T01:50:07.251Z,946.98
2019-05-28T01:51:07.259Z,946.99
2019-05-28T01:52:07.273Z,946.95
2019-05-28T01:53:07.287Z,946.95
2019-05-28T01:54:07.292Z,946.98
2019-05-28T01:55:07.306Z,946.96
2019-05-28T01:56:07.311Z,946.96
2019-05-28T01:57:15.034Z,946.94
2019-05-28T01:59:11.908Z,946.96
2019-05-28T02:00:11.963Z,946.94
2019-05-28T02:02:16.493Z,946.93
2019-05-28T02:03:16.484Z,946.88
2019-05-28T02:05:20.902Z,946.87
2019-05-28T02:06:20.950Z,946.88
2019-05-28T02:08:14.370Z,946.83
2019-05-28T02:09:14.346Z,946.84
2019-05-28T02:11:18.866Z,946.79
2019-05-28T02:12:18.976Z,946.81
2019-05-28T02:14:24.421Z,946.84
2019-05-28T02:15:24.388Z,946.83
2019-05-28T02:17:29.834Z,946.84
2019-05-28T02:18:29.871Z,946.82
2019-05-28T02:20:35.422Z,946.83
2019-05-28T02:21:35.332Z,946.80
2019-05-28T02:23:40.993Z,946.80
2019-05-28T02:24:40.811Z,946.80
2019-05-28T02:26:46.403Z,946.78
2019-05-28T02:27:46.396Z,946.77
2019-05-28T02:29:51.957Z,946.79
2019-05-28T02:30:51.864Z,946.77
2019-05-28T02:32:57.299Z,946.80
2019-05-28T02:33:57.298Z,946.78
2019-05-28T02:36:03.852Z,946.75
2019-05-28T02:37:03.850Z,946.76
2019-05-28T02:39:09.391Z,946.73
2019-05-28T02:40:09.466Z,946.73
2019-05-28T02:41:09.449Z,946.68
2019-05-28T02:42:09.282Z,946.72
2019-05-28T02:43:09.384Z,946.73
2019-05-28T02:44:09.295Z,946.72
2019-05-28T02:45:09.315Z,946.74
2019-05-28T02:46:19.692Z,946.79
2019-05-28T02:48:13.818Z,946.80
2019-05-28T02:49:13.808Z,946.81
2019-05-28T02:51:19.322Z,946.79
2019-05-28T02:52:19.336Z,946.76
2019-05-28T02:54:23.799Z,946.78
2019-05-28T02:55:23.829Z,946.76
2019-05-28T02:57:17.268Z,946.79
2019-05-28T02:58:17.233Z,946.78
2019-05-28T03:00:21.752Z,946.75
2019-05-28T03:01:21.737Z,946.76
2019-05-28T03:03:27.239Z,946.77
2019-05-28T03:04:27.240Z,946.73
2019-05-28T03:06:32.745Z,946.73
2019-05-28T03:07:32.748Z,946.73
2019-05-28T03:09:38.243Z,946.72
2019-05-28T03:11:01.673Z,946.70
2019-05-28T03:12:42.755Z,946.74
2019-05-28T03:13:42.749Z,946.70
2019-05-28T03:15:48.265Z,946.72
2019-05-28T03:16:48.248Z,946.67
2019-05-28T03:18:52.833Z,946.71
2019-05-28T03:19:52.850Z,946.70
2019-05-28T03:20:52.849Z,946.65
2019-05-28T03:21:52.858Z,946.65
2019-05-28T03:22:52.868Z,946.67
2019-05-28T03:23:52.874Z,946.66
2019-05-28T03:24:52.888Z,946.64
2019-05-28T03:26:01.361Z,946.64
2019-05-28T03:27:57.502Z,946.64
2019-05-28T03:28:57.397Z,946.66
2019-05-28T03:31:02.904Z,946.64
2019-05-28T03:32:07.757Z,946.65
2019-05-28T03:34:07.469Z,946.62
2019-05-28T03:35:07.410Z,946.61
2019-05-28T03:37:01.891Z,946.58
2019-05-28T03:38:01.820Z,946.59
2019-05-28T03:40:06.357Z,946.55
2019-05-28T03:41:06.342Z,946.58
2019-05-28T03:43:11.835Z,946.59
2019-05-28T03:44:11.828Z,946.55
2019-05-28T03:46:17.341Z,946.53
2019-05-28T03:47:17.318Z,946.58
2019-05-28T03:49:22.850Z,946.55
2019-05-28T03:50:22.811Z,946.55
2019-05-28T03:52:28.327Z,946.55
2019-05-28T03:53:28.306Z,946.52
2019-05-28T03:55:32.875Z,946.52
2019-05-28T03:56:32.794Z,946.52
2019-05-28T03:58:38.351Z,946.48
2019-05-28T03:59:38.282Z,946.50
2019-05-28T04:01:43.775Z,946.45
2019-05-28T04:02:43.775Z,946.46
2019-05-28T04:04:49.256Z,946.49
2019-05-28T04:05:49.305Z,946.46
2019-05-28T04:07:53.799Z,946.48
2019-05-28T04:08:53.773Z,946.52
2019-05-28T04:10:59.301Z,946.48
2019-05-28T04:11:59.260Z,946.48
2019-05-28T04:14:04.751Z,946.48
2019-05-28T04:15:04.753Z,946.48
2019-05-28T04:16:59.183Z,946.50
2019-05-28T04:17:59.178Z,946.50
2019-05-28T04:18:59.204Z,946.49
2019-05-28T04:19:59.197Z,946.51
2019-05-28T04:20:59.209Z,946.46
2019-05-28T04:21:59.227Z,946.48
2019-05-28T04:22:59.235Z,946.50
2019-05-28T04:23:59.234Z,946.48
2019-05-28T04:24:59.247Z,946.47
2019-05-28T04:25:59.285Z,946.50
2019-05-28T04:26:59.308Z,946.46
2019-05-28T04:27:59.299Z,946.46
2019-05-28T04:28:59.284Z,946.51
2019-05-28T04:29:59.294Z,946.47
2019-05-28T04:30:59.306Z,946.46
2019-05-28T04:31:59.318Z,946.46
2019-05-28T04:32:59.328Z,946.48
2019-05-28T04:33:59.337Z,946.46
2019-05-28T04:34:59.344Z,946.47
2019-05-28T04:35:59.352Z,946.48
2019-05-28T04:36:59.361Z,946.49
2019-05-28T04:37:59.374Z,946.50
2019-05-28T04:38:59.383Z,946.48
2019-05-28T04:39:59.393Z,946.47
2019-05-28T04:40:59.402Z,946.48
2019-05-28T04:41:59.410Z,946.47
2019-05-28T04:42:59.422Z,946.46
2019-05-28T04:43:59.432Z,946.47
2019-05-28T04:44:59.441Z,946.45
2019-05-28T04:45:59.451Z,946.45
2019-05-28T04:46:59.462Z,946.47
2019-05-28T04:47:59.468Z,946.47
2019-05-28T04:48:59.495Z,946.48
2019-05-28T04:49:59.488Z,946.44
2019-05-28T04:50:59.499Z,946.45
2019-05-28T04:51:59.507Z,946.48
2019-05-28T04:52:59.520Z,946.47
2019-05-28T04:53:59.527Z,946.48
2019-05-28T04:54:59.536Z,946.49
2019-05-28T04:55:59.545Z,946.48
2019-05-28T04:56:59.556Z,946.47
2019-05-28T04:57:59.571Z,946.51
2019-05-28T04:58:59.578Z,946.53
2019-05-28T04:59:59.589Z,946.50
2019-05-28T05:00:59.595Z,946.54
2019-05-28T05:01:59.614Z,946.50
2019-05-28T05:03:00.842Z,946.48
2019-05-28T05:03:59.621Z,946.51
2019-05-28T05:04:59.633Z,946.50
2019-05-28T05:05:59.644Z,946.53
2019-05-28T05:06:59.657Z,946.52
2019-05-28T05:07:59.673Z,946.51
2019-05-28T05:08:59.676Z,946.51
2019-05-28T05:09:59.683Z,946.51
2019-05-28T05:10:59.694Z,946.52
2019-05-28T05:11:59.703Z,946.55
2019-05-28T05:12:59.716Z,946.50
2019-05-28T05:13:59.721Z,946.56
2019-05-28T05:14:59.754Z,946.54
2019-05-28T05:15:59.748Z,946.57
2019-05-28T05:16:59.752Z,946.56
2019-05-28T05:17:59.767Z,946.54
2019-05-28T05:18:59.774Z,946.59
2019-05-28T05:19:59.782Z,946.59
2019-05-28T05:20:59.794Z,946.60
2019-05-28T05:21:59.804Z,946.63
2019-05-28T05:22:59.813Z,946.60
2019-05-28T05:23:59.819Z,946.60
2019-05-28T05:24:59.832Z,946.63
2019-05-28T05:25:59.838Z,946.66
2019-05-28T05:26:59.851Z,946.68
2019-05-28T05:27:59.862Z,946.69
2019-05-28T05:28:59.866Z,946.70
2019-05-28T05:29:59.875Z,946.72
2019-05-28T05:30:59.891Z,946.72
2019-05-28T05:31:59.898Z,946.80
2019-05-28T05:33:18.725Z,946.78
2019-05-28T05:33:59.921Z,946.78
2019-05-28T05:34:59.923Z,946.78
2019-05-28T05:35:59.934Z,946.75
2019-05-28T05:36:59.945Z,946.77
2019-05-28T05:37:59.958Z,946.75
2019-05-28T05:38:59.965Z,946.74
2019-05-28T05:39:59.972Z,946.76
2019-05-28T05:40:59.983Z,946.79
2019-05-28T05:41:59.994Z,946.82
2019-05-28T05:43:00.015Z,946.81
2019-05-28T05:44:00.012Z,946.82
2019-05-28T05:45:00.031Z,946.84
2019-05-28T05:46:00.031Z,946.85
2019-05-28T05:47:00.037Z,946.83
2019-05-28T05:48:00.049Z,946.86
2019-05-28T05:49:00.064Z,946.84
2019-05-28T05:50:00.069Z,946.85
2019-05-28T05:51:00.077Z,946.90
2019-05-28T05:52:00.088Z,946.89
2019-05-28T05:53:00.102Z,946.85
2019-05-28T05:54:00.114Z,946.87
2019-05-28T05:55:00.195Z,946.88
2019-05-28T05:56:00.127Z,946.86
2019-05-28T05:57:00.146Z,946.84
2019-05-28T05:58:00.143Z,946.89
2019-05-28T05:59:00.153Z,946.84
2019-05-28T06:00:00.209Z,946.90
2019-05-28T06:01:00.172Z,946.89
2019-05-28T06:02:00.180Z,946.89
2019-05-28T06:03:00.191Z,946.92
2019-05-28T06:04:00.203Z,946.92
2019-05-28T06:05:00.214Z,946.94
2019-05-28T06:06:00.221Z,946.94
2019-05-28T06:07:00.234Z,946.96
2019-05-28T06:08:00.240Z,946.96
2019-05-28T06:09:00.254Z,946.93
2019-05-28T06:10:00.258Z,946.93
2019-05-28T06:11:00.265Z,946.97
2019-05-28T06:12:00.274Z,946.92
2019-05-28T06:13:00.291Z,946.98
2019-05-28T06:14:00.306Z,946.98
2019-05-28T06:15:00.315Z,946.99
2019-05-28T06:16:00.313Z,946.98
2019-05-28T06:17:00.329Z,946.95
2019-05-28T06:18:00.335Z,946.97
2019-05-28T06:19:00.342Z,946.97
2019-05-28T06:20:00.349Z,946.96
2019-05-28T06:21:12.214Z,946.92
2019-05-28T06:22:00.376Z,946.91
2019-05-28T06:23:00.419Z,946.90
2019-05-28T06:24:00.389Z,946.91
2019-05-28T06:25:00.415Z,946.92
2019-05-28T06:26:00.407Z,946.95
2019-05-28T06:27:00.415Z,946.95
2019-05-28T06:28:00.427Z,946.95
2019-05-28T06:29:00.435Z,946.95
2019-05-28T06:30:00.449Z,946.98
2019-05-28T06:31:00.457Z,947.06
2019-05-28T06:32:00.465Z,947.03
2019-05-28T06:33:00.472Z,947.07
2019-05-28T06:34:00.484Z,947.07
2019-05-28T06:35:00.493Z,947.07
2019-05-28T06:36:00.507Z,947.12
2019-05-28T06:37:00.511Z,947.10
2019-05-28T06:38:00.523Z,947.11
2019-05-28T06:39:00.577Z,947.12
2019-05-28T06:40:00.541Z,947.11
2019-05-28T06:41:00.553Z,947.10
2019-05-28T06:42:00.558Z,947.09
2019-05-28T06:43:00.569Z,947.15
2019-05-28T06:44:00.578Z,947.11
2019-05-28T06:45:00.593Z,947.13
2019-05-28T06:46:00.601Z,947.17
2019-05-28T06:47:00.609Z,947.18
2019-05-28T06:48:00.621Z,947.18
2019-05-28T06:49:00.627Z,947.16
2019-05-28T06:50:00.638Z,947.21
2019-05-28T06:51:00.647Z,947.20
2019-05-28T06:52:00.653Z,947.23
2019-05-28T06:53:00.665Z,947.21
2019-05-28T06:54:00.678Z,947.21
2019-05-28T06:55:00.684Z,947.21
2019-05-28T06:56:00.699Z,947.23
2019-05-28T06:57:00.706Z,947.21
2019-05-28T06:58:00.714Z,947.17
2019-05-28T06:59:00.726Z,947.23
2019-05-28T07:00:00.733Z,947.26
2019-05-28T07:01:00.800Z,947.24
2019-05-28T07:02:00.768Z,947.28
2019-05-28T07:03:00.766Z,947.22
2019-05-28T07:04:13.577Z,947.25
2019-05-28T07:05:00.786Z,947.31
2019-05-28T07:06:07.096Z,947.29
2019-05-28T07:07:00.801Z,947.32
2019-05-28T07:08:00.811Z,947.33
2019-05-28T07:09:00.827Z,947.29
2019-05-28T07:10:00.833Z,947.35
2019-05-28T07:11:00.845Z,947.37
2019-05-28T07:12:00.853Z,947.37
2019-05-28T07:13:00.861Z,947.39
2019-05-28T07:14:00.870Z,947.36
2019-05-28T07:15:00.880Z,947.34
2019-05-28T07:16:00.893Z,947.31
2019-05-28T07:17:00.902Z,947.32
2019-05-28T07:18:00.911Z,947.31
2019-05-28T07:19:00.921Z,947.27
2019-05-28T07:20:00.928Z,947.32
2019-05-28T07:21:00.942Z,947.33
2019-05-28T07:22:00.948Z,947.35
2019-05-28T07:23:00.959Z,947.34
2019-05-28T07:24:04.954Z,947.37
2019-05-28T07:25:00.980Z,947.35
2019-05-28T07:26:00.997Z,947.40
2019-05-28T07:27:01.001Z,947.36
2019-05-28T07:28:11.161Z,947.35
2019-05-28T07:29:01.018Z,947.35
2019-05-28T07:30:01.029Z,947.39
2019-05-28T07:31:01.036Z,947.41
2019-05-28T07:32:01.047Z,947.39
2019-05-28T07:33:01.059Z,947.44
2019-05-28T07:34:01.073Z,947.44
2019-05-28T07:35:01.077Z,947.42
2019-05-28T07:36:01.087Z,947.44
2019-05-28T07:37:01.100Z,947.37
2019-05-28T07:38:01.107Z,947.42
2019-05-28T07:39:01.118Z,947.40
2019-05-28T07:40:01.303Z,947.45
2019-05-28T07:41:01.137Z,947.44
2019-05-28T07:42:01.189Z,947.43
2019-05-28T07:43:01.155Z,947.47
2019-05-28T07:44:01.165Z,947.47
2019-05-28T07:45:01.186Z,947.46
2019-05-28T07:46:01.186Z,947.51
2019-05-28T07:47:01.196Z,947.48
2019-05-28T07:48:01.206Z,947.54
2019-05-28T07:49:01.213Z,947.54
2019-05-28T07:50:01.227Z,947.56
2019-05-28T07:51:01.237Z,947.56
2019-05-28T07:52:01.246Z,947.56
2019-05-28T07:53:01.254Z,947.57
2019-05-28T07:54:01.265Z,947.61
2019-05-28T07:55:01.271Z,947.59
2019-05-28T07:56:01.291Z,947.60
2019-05-28T07:57:01.295Z,947.63
2019-05-28T07:58:01.304Z,947.61
2019-05-28T07:59:01.321Z,947.65
2019-05-28T08:00:05.401Z,947.63
2019-05-28T08:01:01.332Z,947.64
2019-05-28T08:02:01.344Z,947.65
2019-05-28T08:03:01.353Z,947.67
2019-05-28T08:04:01.369Z,947.65
2019-05-28T08:05:01.374Z,947.66
2019-05-28T08:06:01.382Z,947.68
2019-05-28T08:07:01.391Z,947.71
2019-05-28T08:08:01.402Z,947.71
2019-05-28T08:09:01.487Z,947.68
2019-05-28T08:10:01.429Z,947.72
2019-05-28T08:11:01.534Z,947.72
2019-05-28T08:12:01.440Z,947.73
2019-05-28T08:13:01.453Z,947.70
2019-05-28T08:14:01.467Z,947.75
2019-05-28T08:15:01.471Z,947.77
2019-05-28T08:16:17.564Z,947.76
2019-05-28T08:17:01.492Z,947.79
2019-05-28T08:18:01.500Z,947.79
2019-05-28T08:19:01.510Z,947.79
2019-05-28T08:20:01.520Z,947.85
2019-05-28T08:21:01.538Z,947.83
2019-05-28T08:22:01.556Z,947.86
2019-05-28T08:23:01.550Z,947.88
2019-05-28T08:24:01.562Z,947.88
2019-05-28T08:25:01.613Z,947.89
2019-05-28T08:26:02.113Z,947.91
2019-05-28T08:27:01.589Z,947.93
2019-05-28T08:28:18.451Z,947.90
2019-05-28T08:29:01.609Z,947.95
2019-05-28T08:30:01.676Z,947.96
2019-05-28T08:31:14.659Z,947.98
2019-05-28T08:32:01.644Z,948.02
2019-05-28T08:33:01.670Z,948.05
2019-05-28T08:34:01.676Z,948.03
2019-05-28T08:35:05.650Z,948.09
2019-05-28T08:36:01.690Z,948.13
2019-05-28T08:37:05.676Z,948.15
2019-05-28T08:38:01.696Z,948.13
2019-05-28T08:39:01.707Z,948.17
2019-05-28T08:40:01.723Z,948.19
2019-05-28T08:41:01.729Z,948.16
2019-05-28T08:42:01.742Z,948.12
2019-05-28T08:43:01.748Z,948.14
2019-05-28T08:44:01.759Z,948.17
2019-05-28T08:45:01.769Z,948.25
2019-05-28T08:46:01.779Z,948.29
2019-05-28T08:47:01.788Z,948.30
2019-05-28T08:48:01.845Z,948.28
2019-05-28T08:49:01.808Z,948.30
2019-05-28T08:50:01.820Z,948.37
2019-05-28T08:51:01.833Z,948.31
2019-05-28T08:52:01.841Z,948.31
2019-05-28T08:53:01.876Z,948.29
2019-05-28T08:54:01.859Z,948.25
2019-05-28T08:55:01.875Z,948.30
2019-05-28T08:56:01.888Z,948.33
2019-05-28T08:57:01.900Z,948.31
2019-05-28T08:58:02.525Z,948.29
2019-05-28T08:59:01.910Z,948.28
2019-05-28T09:00:02.020Z,948.33
2019-05-28T09:01:02.044Z,948.33
2019-05-28T09:02:01.944Z,948.35
2019-05-28T09:03:05.145Z,948.30
2019-05-28T09:04:01.962Z,948.31
2019-05-28T09:05:02.044Z,948.30
2019-05-28T09:06:01.985Z,948.26
2019-05-28T09:07:02.001Z,948.33
2019-05-28T09:08:02.014Z,948.32
2019-05-28T09:09:02.023Z,948.36
2019-05-28T09:10:02.054Z,948.41
2019-05-28T09:11:02.211Z,948.41
2019-05-28T09:12:02.052Z,948.46
2019-05-28T09:13:02.061Z,948.44
2019-05-28T09:14:02.077Z,948.47
2019-05-28T09:15:02.119Z,948.41
2019-05-28T09:16:02.095Z,948.54
2019-05-28T09:17:02.198Z,948.54
2019-05-28T09:18:02.225Z,948.55
2019-05-28T09:19:11.204Z,948.52
2019-05-28T09:21:23.812Z,948.54
2019-05-28T09:22:25.848Z,948.52
2019-05-28T09:24:32.723Z,948.58
2019-05-28T09:25:33.475Z,948.60
2019-05-28T09:27:16.160Z,948.61
2019-05-28T09:28:29.091Z,948.59
2019-05-28T09:29:16.552Z,948.61
2019-05-28T09:30:16.628Z,948.60
2019-05-28T09:31:24.754Z,948.63
2019-05-28T09:33:33.483Z,948.60
2019-05-28T09:34:23.248Z,948.53
2019-05-28T09:36:31.708Z,948.57
2019-05-28T09:37:31.426Z,948.56
2019-05-28T09:38:31.903Z,948.55
2019-05-28T09:39:31.683Z,948.56
2019-05-28T09:40:48.389Z,948.58
2019-05-28T09:41:31.414Z,948.62
2019-05-28T09:42:31.427Z,948.63
2019-05-28T09:43:31.436Z,948.65
2019-05-28T09:44:31.463Z,948.69
2019-05-28T09:45:38.638Z,948.73
2019-05-28T09:47:35.477Z,948.73
2019-05-28T09:48:35.472Z,948.68
2019-05-28T09:50:39.971Z,948.65
2019-05-28T09:51:39.961Z,948.69
2019-05-28T09:53:43.992Z,948.72
2019-05-28T09:54:43.993Z,948.73
2019-05-28T09:56:36.937Z,948.67
2019-05-28T09:57:46.999Z,948.56
2019-05-28T09:58:36.940Z,948.52
2019-05-28T09:59:41.649Z,948.55
2019-05-28T10:00:36.965Z,948.59
2019-05-28T10:01:37.490Z,948.60
2019-05-28T10:02:36.983Z,948.67
2019-05-28T10:03:36.994Z,948.69
2019-05-28T10:04:47.561Z,948.71
2019-05-28T10:05:40.004Z,948.74
2019-05-28T10:06:39.670Z,948.77
2019-05-28T10:07:37.039Z,948.78
2019-05-28T10:08:37.060Z,948.74
2019-05-28T10:09:37.059Z,948.80
2019-05-28T10:10:37.073Z,948.84
2019-05-28T10:11:37.085Z,948.85
2019-05-28T10:12:37.089Z,948.87
2019-05-28T10:13:40.461Z,948.92
2019-05-28T10:14:37.109Z,948.97
2019-05-28T10:15:37.126Z,948.96
2019-05-28T10:16:37.134Z,948.95
2019-05-28T10:17:37.148Z,949.00
2019-05-28T10:18:37.154Z,949.06
2019-05-28T10:19:37.161Z,949.09
2019-05-28T10:20:38.294Z,949.12
2019-05-28T10:21:37.181Z,949.18
2019-05-28T10:22:37.194Z,949.13
2019-05-28T10:23:37.207Z,949.17
2019-05-28T10:24:37.218Z,949.20
2019-05-28T10:25:37.225Z,949.23
2019-05-28T10:26:37.235Z,949.26
2019-05-28T10:27:37.241Z,949.24
2019-05-28T10:28:37.253Z,949.28
2019-05-28T10:29:37.263Z,949.20
2019-05-28T10:30:37.277Z,949.20
2019-05-28T10:31:37.287Z,949.24
2019-05-28T10:32:37.298Z,949.25
2019-05-28T10:33:37.307Z,949.21
2019-05-28T10:34:37.324Z,949.24
2019-05-28T10:35:37.327Z,949.26
2019-05-28T10:36:38.172Z,949.29
2019-05-28T10:37:37.347Z,949.32
2019-05-28T10:38:37.401Z,949.35
2019-05-28T10:39:37.373Z,949.32
2019-05-28T10:40:37.382Z,949.34
2019-05-28T10:41:37.391Z,949.34
2019-05-28T10:42:37.402Z,949.38
2019-05-28T10:43:37.413Z,949.41
2019-05-28T10:44:37.425Z,949.43
2019-05-28T10:45:37.471Z,949.43
2019-05-28T10:46:37.445Z,949.41
2019-05-28T10:47:37.455Z,949.43
2019-05-28T10:48:37.468Z,949.41
2019-05-28T10:49:37.477Z,949.32
2019-05-28T10:50:37.488Z,949.27
2019-05-28T10:51:37.501Z,949.28
2019-05-28T10:52:37.530Z,949.19
2019-05-28T10:53:37.518Z,949.11
2019-05-28T10:54:37.537Z,949.09
2019-05-28T10:55:37.541Z,949.22
2019-05-28T10:56:37.556Z,949.27
2019-05-28T10:57:37.567Z,949.25
2019-05-28T10:58:37.573Z,949.35
2019-05-28T10:59:37.587Z,949.43
2019-05-28T11:00:37.610Z,949.51
2019-05-28T11:01:37.607Z,949.52
2019-05-28T11:02:37.618Z,949.51
2019-05-28T11:03:37.628Z,949.49
2019-05-28T11:04:37.649Z,949.50
2019-05-28T11:05:37.648Z,949.50
2019-05-28T11:06:50.825Z,949.51
2019-05-28T11:07:37.676Z,949.55
2019-05-28T11:08:37.682Z,949.50
2019-05-28T11:09:37.697Z,949.56
2019-05-28T11:10:37.711Z,949.61
2019-05-28T11:11:37.715Z,949.64
2019-05-28T11:12:37.730Z,949.71
2019-05-28T11:13:52.119Z,949.70
2019-05-28T11:14:37.748Z,949.73
2019-05-28T11:15:37.758Z,949.76
2019-05-28T11:16:37.771Z,949.79
2019-05-28T11:17:37.783Z,949.79
2019-05-28T11:18:37.795Z,949.81
2019-05-28T11:19:37.802Z,949.75
2019-05-28T11:20:37.820Z,949.73
2019-05-28T11:21:37.848Z,949.76
2019-05-28T11:22:37.836Z,949.72
2019-05-28T11:23:37.846Z,949.70
2019-05-28T11:24:37.857Z,949.74
2019-05-28T11:25:37.870Z,949.81
2019-05-28T11:26:37.879Z,949.78
2019-05-28T11:27:37.893Z,949.75
2019-05-28T11:28:37.901Z,949.73
2019-05-28T11:29:37.912Z,949.76
2019-05-28T11:30:37.930Z,949.78
2019-05-28T11:31:37.937Z,949.79
2019-05-28T11:32:37.955Z,949.74
2019-05-28T11:33:37.959Z,949.72
2019-05-28T11:34:37.981Z,949.72
2019-05-28T11:35:37.984Z,949.77
2019-05-28T11:36:37.994Z,949.74
2019-05-28T11:37:38.004Z,949.74
2019-05-28T11:38:38.014Z,949.78
2019-05-28T11:39:38.028Z,949.73
2019-05-28T11:40:38.037Z,949.77
2019-05-28T11:41:42.157Z,949.79
2019-05-28T11:42:38.062Z,949.82
2019-05-28T11:43:38.078Z,949.83
2019-05-28T11:44:38.084Z,949.83
2019-05-28T11:45:38.093Z,949.84
2019-05-28T11:46:38.109Z,949.83
2019-05-28T11:47:38.121Z,949.83
2019-05-28T11:48:38.135Z,949.82
2019-05-28T11:49:38.142Z,949.82
2019-05-28T11:50:38.159Z,949.77
2019-05-28T11:51:38.168Z,949.74
2019-05-28T11:52:38.178Z,949.77
2019-05-28T11:53:38.193Z,949.74
2019-05-28T11:54:38.202Z,949.76
2019-05-28T11:55:38.214Z,949.79
2019-05-28T11:56:38.230Z,949.78
2019-05-28T11:57:38.233Z,949.80
2019-05-28T11:58:38.255Z,949.80
2019-05-28T11:59:38.261Z,949.84
2019-05-28T12:00:38.279Z,949.83
2019-05-28T12:01:38.282Z,949.85
2019-05-28T12:02:38.295Z,949.87
2019-05-28T12:03:38.306Z,949.87
2019-05-28T12:04:38.324Z,949.86
2019-05-28T12:05:38.374Z,949.88
2019-05-28T12:06:38.568Z,949.84
2019-05-28T12:07:38.374Z,949.79
2019-05-28T12:08:38.365Z,949.76
2019-05-28T12:09:38.377Z,949.78
2019-05-28T12:10:38.393Z,949.73
2019-05-28T12:11:38.401Z,949.71
2019-05-28T12:12:38.414Z,949.70
2019-05-28T12:13:38.433Z,949.72
2019-05-28T12:14:38.437Z,949.73
2019-05-28T12:15:38.456Z,949.72
2019-05-28T12:16:38.472Z,949.72
2019-05-28T12:17:43.321Z,949.72
2019-05-28T12:18:38.492Z,949.74
2019-05-28T12:19:38.501Z,949.72
2019-05-28T12:20:38.515Z,949.72
2019-05-28T12:21:38.524Z,949.82
2019-05-28T12:22:38.536Z,949.81
2019-05-28T12:23:38.551Z,949.84
2019-05-28T12:24:38.588Z,949.85
2019-05-28T12:25:38.575Z,949.89
2019-05-28T12:26:38.597Z,949.90
2019-05-28T12:27:38.601Z,949.88
2019-05-28T12:28:38.702Z,949.88
2019-05-28T12:29:51.569Z,949.90
2019-05-28T12:30:38.635Z,949.87
2019-05-28T12:31:38.645Z,949.88
2019-05-28T12:32:38.660Z,949.87
2019-05-28T12:33:38.669Z,949.90
2019-05-28T12:34:38.682Z,949.91
2019-05-28T12:35:42.742Z,949.92
2019-05-28T12:36:38.708Z,949.89
2019-05-28T12:37:48.278Z,949.94
2019-05-28T12:38:38.730Z,949.92
2019-05-28T12:39:38.740Z,949.91
2019-05-28T12:40:48.038Z,949.90
2019-05-28T12:41:38.765Z,949.89
2019-05-28T12:42:38.775Z,949.89
2019-05-28T12:43:38.793Z,949.95
2019-05-28T12:44:42.074Z,949.94
2019-05-28T12:45:38.813Z,949.91
2019-05-28T12:46:38.835Z,949.95
2019-05-28T12:47:38.872Z,949.89
2019-05-28T12:48:38.848Z,949.89
2019-05-28T12:49:38.863Z,949.88
2019-05-28T12:50:38.873Z,949.90
2019-05-28T12:51:38.885Z,949.91
2019-05-28T12:52:38.900Z,949.90
2019-05-28T12:53:49.748Z,949.85
2019-05-28T12:54:38.923Z,949.86
2019-05-28T12:55:38.964Z,949.87
2019-05-28T12:56:38.949Z,949.82
2019-05-28T12:57:38.955Z,949.81
2019-05-28T12:58:42.956Z,949.81
2019-05-28T12:59:38.978Z,949.81
2019-05-28T13:00:38.996Z,949.85
2019-05-28T13:01:39.004Z,949.84
2019-05-28T13:02:39.022Z,949.82
2019-05-28T13:03:39.299Z,949.85
2019-05-28T13:04:39.035Z,949.84
2019-05-28T13:05:39.048Z,949.88
2019-05-28T13:06:39.063Z,949.91
2019-05-28T13:07:39.071Z,949.93
2019-05-28T13:08:39.086Z,949.92
2019-05-28T13:09:39.095Z,949.91
2019-05-28T13:10:39.105Z,950.01
2019-05-28T13:11:39.117Z,949.99
2019-05-28T13:12:39.127Z,949.98
2019-05-28T13:13:39.142Z,950.03
2019-05-28T13:14:39.154Z,949.99
2019-05-28T13:15:42.342Z,949.95
2019-05-28T13:16:39.174Z,950.00
2019-05-28T13:17:39.197Z,950.03
2019-05-28T13:18:39.212Z,950.03
2019-05-28T13:19:39.207Z,950.01
2019-05-28T13:20:39.224Z,950.01
2019-05-28T13:21:39.231Z,949.99
2019-05-28T13:22:39.244Z,950.13